Austin Golding — WDC8113 — position and weather

sailwx.info

Track history (hours):
 
Tides and Currents Weather Stations Pressure Air Temp Water Temp Dewpoint Dewpoint Depression Visibility Wind Speed Wind Dir Waves Ship Positions

Austin Golding

Owner: Golding Barge Line, Inc., Vicksburg, MS. More information available from US FCC via Universal Licensing System and Coast Guard Vessel Documentation Center.

Last reported at 2018-Apr-21 11:56 UTC. Time now 2018-Apr-24 01:07 UTC.
Position N 30°24' W 086°53'.

Length 211 m; draft 2.9 m.

Type: . MMSI: 367081860.

Date/timePositionNaut miles runAvg speedWind from/ knotsBaromVisibWave heightAir tempDewpointWater temp
2018-Apr-21 11:56N 30°24' W 086°53'3 6.2
2018-Apr-21 11:30N 30°24' W 086°50'3 6.7
2018-Apr-21 11:00N 30°24' W 086°46'13 6.4
2018-Apr-21 08:59N 30°25' W 086°31'3 7.1
2018-Apr-21 08:30N 30°26' W 086°27'4 7.5
2018-Apr-21 08:00N 30°26' W 086°23'4 0.1
2018-Apr-19 23:32N 30°26' W 086°18'1 5.8
2018-Apr-19 23:24N 30°26' W 086°19'2 5.7
2018-Apr-19 23:00N 30°26' W 086°22'3 5.8
2018-Apr-19 22:31N 30°26' W 086°25'3 5.9
2018-Apr-19 22:00N 30°26' W 086°29'3 5.9
2018-Apr-19 21:30N 30°25' W 086°32'3 5.5
2018-Apr-19 20:58N 30°24' W 086°35'8 5.8
2018-Apr-19 19:31N 30°24' W 086°45'1 5.8
2018-Apr-19 19:26N 30°24' W 086°45'2 5.8
2018-Apr-19 19:00N 30°24' W 086°48'3 5.8
2018-Apr-19 18:30N 30°24' W 086°52'  
2018-Apr-17 02:59N 30°24' W 086°53'3 6.8
2018-Apr-17 02:30N 30°24' W 086°49'3 6.5
2018-Apr-17 02:01N 30°24' W 086°46'13 6.2
2018-Apr-16 23:55N 30°26' W 086°31'3 6.4
2018-Apr-16 23:30N 30°26' W 086°28'3 6.4
2018-Apr-16 23:01N 30°26' W 086°24'3 6.6
2018-Apr-16 22:30N 30°26' W 086°20'1 0.0
2018-Apr-15 01:41N 30°26' W 086°19'1 6.5
2018-Apr-15 01:30N 30°26' W 086°20'3 6.2
2018-Apr-15 01:00N 30°26' W 086°24'3 6.0
2018-Apr-15 00:30N 30°26' W 086°27'3 5.9
2018-Apr-15 00:00N 30°26' W 086°31'12 4.7
2018-Apr-14 21:27N 30°24' W 086°45'2 5.0
2018-Apr-14 21:00N 30°24' W 086°47'3 5.2
2018-Apr-14 20:30N 30°24' W 086°50'3 5.3
2018-Apr-14 20:00N 30°24' W 086°53'  
Track history (hours):
 
Tides and Currents Weather Stations Pressure Air Temp Water Temp Dewpoint Dewpoint Depression Visibility Wind Speed Wind Dir Waves Ship Positions

Austin Golding

Owner: Golding Barge Line, Inc., Vicksburg, MS. More information available from US FCC via Universal Licensing System and Coast Guard Vessel Documentation Center.

Last reported at 2018-Apr-21 11:56 UTC. Time now 2018-Apr-24 01:07 UTC.
Position N 30°24' W 086°53'.

Length 211 m; draft 2.9 m.

Type: . MMSI: 367081860.

Date/timePositionNaut miles runAvg speedWind from/ knotsBaromVisibWave heightAir tempDewpointWater temp
2018-Apr-21 11:56N 30°24' W 086°53'3 6.2
2018-Apr-21 11:30N 30°24' W 086°50'3 6.7
2018-Apr-21 11:00N 30°24' W 086°46'13 6.4
2018-Apr-21 08:59N 30°25' W 086°31'3 7.1
2018-Apr-21 08:30N 30°26' W 086°27'4 7.5
2018-Apr-21 08:00N 30°26' W 086°23'4 0.1
2018-Apr-19 23:32N 30°26' W 086°18'1 5.8
2018-Apr-19 23:24N 30°26' W 086°19'2 5.7
2018-Apr-19 23:00N 30°26' W 086°22'3 5.8
2018-Apr-19 22:31N 30°26' W 086°25'3 5.9
2018-Apr-19 22:00N 30°26' W 086°29'3 5.9
2018-Apr-19 21:30N 30°25' W 086°32'3 5.5
2018-Apr-19 20:58N 30°24' W 086°35'8 5.8
2018-Apr-19 19:31N 30°24' W 086°45'1 5.8
2018-Apr-19 19:26N 30°24' W 086°45'2 5.8
2018-Apr-19 19:00N 30°24' W 086°48'3 5.8
2018-Apr-19 18:30N 30°24' W 086°52'  
2018-Apr-17 02:59N 30°24' W 086°53'3 6.8
2018-Apr-17 02:30N 30°24' W 086°49'3 6.5
2018-Apr-17 02:01N 30°24' W 086°46'13 6.2
2018-Apr-16 23:55N 30°26' W 086°31'3 6.4
2018-Apr-16 23:30N 30°26' W 086°28'3 6.4
2018-Apr-16 23:01N 30°26' W 086°24'3 6.6
2018-Apr-16 22:30N 30°26' W 086°20'1 0.0
2018-Apr-15 01:41N 30°26' W 086°19'1 6.5
2018-Apr-15 01:30N 30°26' W 086°20'3 6.2
2018-Apr-15 01:00N 30°26' W 086°24'3 6.0
2018-Apr-15 00:30N 30°26' W 086°27'3 5.9
2018-Apr-15 00:00N 30°26' W 086°31'12 4.7
2018-Apr-14 21:27N 30°24' W 086°45'2 5.0
2018-Apr-14 21:00N 30°24' W 086°47'3 5.2
2018-Apr-14 20:30N 30°24' W 086°50'3 5.3
2018-Apr-14 20:00N 30°24' W 086°53'  

Dump ship's entire track history